< < Back
Terminal Aerodrome Forecast


Current Version              Previous Versions:   1  2  3  4  5  6  7  8  9  

Terminal Aerodrome Forecast

550
FTUS42 KFFC 250900 AAA
TAFAHN
TAF AMD
KAHN 250944Z 2510/2606 26003KT 6SM BR SCT070
     FM251100 00000KT 5SM BR SCT008
     FM251400 VRB03KT P6SM SCT025
     FM251600 28005KT P6SM SCT040
     FM260000 25003KT P6SM FEW050=

Latest METAR

111
SAUS70 KWBC 251300
MTRAHN
METAR KAHN 251251Z 06005KT 3SM HZ FEW055 24/21 A3006 RMK AO2 SLP171
T02390211


USA.gov is the U.S. government's official web portal to all federal, state and local government web resources and services.